< < Back
Terminal Aerodrome Forecast


Current Version              Previous Versions:   1  2  3  4  5  6  7  8  9  

Terminal Aerodrome Forecast

957
FTUS42 KFFC 021130
TAFPDK
TAF
KPDK 021130Z 0212/0312 00000KT 2SM -DZ BR OVC006
      TEMPO 0212/0214 1/2SM FG OVC002
     FM021500 30005KT P6SM OVC008
     FM022000 30004KT P6SM OVC012
     FM030600 00000KT 1SM -DZ BR OVC008
     FM030800 07004KT 1SM -RA BR OVC008=

Latest METAR

398
SAUS70 KWBC 021200
MTRPDK
METAR KPDK 021153Z 29004KT 2SM BR OVC004 07/07 A3030 RMK AO2 SLP267
70006 T00720072 10072 20067 53008


USA.gov is the U.S. government's official web portal to all federal, state and local government web resources and services.